Latest Coastal Weather Observations for Swanbourne

IDW60701

Issued at 1:05 pm WST Tuesday 2 September 2014 (issued every 10 minutes, with the page automatically refreshed every 10 minutes)

About coastal observations | Map of coastal stations | Coastal observations for WA | Marine services | Other Formats
Station Details ID: 009215 Name: SWANBOURNE Lat: -31.96 Lon: 115.76 Height: 40.96 m
Data from the previous 72 hours. | See also: Recent months at Swanbourne
Date/Time
WST
Temp

°C
Wind Pressure Rain
since 9am
mm
Weather Cloud Vis
km
Sea
Height
m
Swell
Dir
 
Speed
knots
Gust
knots
hPa Trend Height
m
Period
s
Dir
02/01:00pm 20.4 N 6 9 - - 0.0 - - - - - - -
02/12:30pm 20.7 NE 3 5 - - 0.0 - - - - - - -
02/12:00pm 19.5 NE 4 7 - - 0.0 - - - - - - -
02/11:30am 18.2 ENE 5 6 - - 0.0 - - - - - - -
02/11:00am 17.8 ENE 3 6 - - 0.0 - - - - - - -
02/10:30am 17.4 ENE 4 7 - - 0.0 - - - - - - -
02/10:00am 16.5 E 3 4 - - 0.0 - - - - - - -
02/09:30am 16.6 NE 1 3 - - 0.0 - - - - - - -
02/09:00am 15.7 E 1 5 - - 0.0 - - - - - - -
02/08:30am 14.9 E 7 10 - - 0.0 - - - - - - -
02/08:00am 14.4 ENE 5 7 - - 0.0 - - - - - - -
02/07:30am 13.9 E 8 12 - - 0.0 - - - - - - -
02/07:00am 13.8 E 7 13 - - 0.0 - - - - - - -
02/06:30am 13.6 E 7 9 - - 0.0 - - - - - - -
02/06:00am 13.7 E 6 8 - - 0.0 - - - - - - -
02/05:30am 13.8 E 6 7 - - 0.0 - - - - - - -
02/05:00am 14.1 E 6 9 - - 0.0 - - - - - - -
02/04:30am 14.1 E 6 9 - - 0.0 - - - - - - -
02/04:00am 14.1 E 6 10 - - 0.0 - - - - - - -
02/03:30am 13.9 E 5 8 - - 0.0 - - - - - - -
02/03:00am 13.9 E 8 10 - - 0.0 - - - - - - -
02/02:30am 13.7 ESE 5 8 - - 0.0 - - - - - - -
02/02:00am 13.8 SSE 3 4 - - 0.0 - - - - - - -
02/01:30am 13.7 S 3 5 - - 0.0 - - - - - - -
02/01:00am 14.3 S 2 5 - - 0.0 - - - - - - -
02/12:30am 14.6 E 9 12 - - 0.0 - - - - - - -
02/12:00am 14.4 E 9 12 - - 0.0 - - - - - - -
 
Date/Time
WST
Temp

°C
Wind Pressure Rain
since 9am
mm
Weather Cloud Vis
km
Sea
Height
m
Swell
Dir
 
Speed
knots
Gust
knots
hPa Trend Height
m
Period
s
Dir
01/11:30pm 14.5 E 8 11 - - 0.0 - - - - - - -
01/11:00pm 14.4 E 9 12 - - 0.0 - - - - - - -
01/10:30pm 13.7 E 6 9 - - 0.0 - - - - - - -
01/10:00pm 13.9 E 6 7 - - 0.0 - - - - - - -
01/09:30pm 14.1 ESE 6 8 - - 0.0 - - - - - - -
01/09:00pm 14.1 ESE 6 7 - - 0.0 - - - - - - -
01/08:30pm 14.2 ESE 5 7 - - 0.0 - - - - - - -
01/08:00pm 14.4 ESE 5 7 - - 0.0 - - - - - - -
01/07:30pm 14.5 ESE 5 8 - - 0.0 - - - - - - -
01/07:00pm 14.7 ESE 4 6 - - 0.0 - - - - - - -
01/06:30pm 14.8 ESE 5 6 - - 0.0 - - - - - - -
01/06:00pm 15.5 E 5 8 - - 0.0 - - - - - - -
01/05:30pm 16.2 E 5 9 - - 0.0 - - - - - - -
01/05:00pm 17.3 ENE 4 8 - - 0.0 - - - - - - -
01/04:30pm 17.9 ENE 5 10 - - 0.0 - - - - - - -
01/04:00pm 18.3 ENE 7 15 - - 0.0 - - - - - - -
01/03:30pm 18.0 ENE 6 11 - - 0.0 - - - - - - -
01/03:00pm 19.3 ENE 7 13 - - 0.0 - - - - - - -
01/02:30pm 19.4 NE 7 13 - - 0.0 - - - - - - -
01/02:00pm 18.9 ENE 6 11 - - 0.0 - - - - - - -
01/01:30pm 18.8 ENE 8 14 - - 0.0 - - - - - - -
01/01:00pm 18.0 ENE 8 13 - - 0.0 - - - - - - -
01/12:30pm 17.3 ENE 9 13 - - 0.0 - - - - - - -
01/12:00pm 17.4 ENE 8 12 - - 0.0 - - - - - - -
01/11:30am 17.3 E 9 15 - - 0.0 - - - - - - -
01/11:00am 16.5 ENE 9 16 - - 0.0 - - - - - - -
01/10:30am 15.5 ENE 10 16 - - 0.0 - - - - - - -
01/10:00am 15.9 ENE 8 14 - - 0.0 - - - - - - -
01/09:30am 14.6 E 8 15 - - 0.0 - - - - - - -
01/09:00am 13.2 E 10 17 - - 0.0 - - - - - - -
01/08:30am 12.3 E 9 16 - - 0.0 - - - - - - -
01/08:00am 11.0 E 8 14 - - 0.0 - - - - - - -
01/07:30am 10.0 E 9 14 - - 0.0 - - - - - - -
01/07:00am 9.2 E 9 13 - - 0.0 - - - - - - -
01/06:30am 8.7 E 7 13 - - 0.0 - - - - - - -
01/06:00am 8.0 E 6 8 - - 0.0 - - - - - - -
01/05:30am 7.8 E 5 7 - - 0.0 - - - - - - -
01/05:00am 8.2 E 5 7 - - 0.0 - - - - - - -
01/04:30am 8.4 E 5 7 - - 0.0 - - - - - - -
01/04:00am 9.2 E 6 7 - - 0.0 - - - - - - -
01/03:30am 9.2 E 6 9 - - 0.0 - - - - - - -
01/03:00am 9.3 ESE 6 8 - - 0.0 - - - - - - -
01/02:30am 9.3 ESE 6 7 - - 0.0 - - - - - - -
01/02:00am 9.6 ESE 6 8 - - 0.0 - - - - - - -
01/01:30am 9.6 SE 5 7 - - 0.0 - - - - - - -
01/01:00am 9.8 ESE 5 6 - - 0.0 - - - - - - -
01/12:30am 10.1 ESE 5 7 - - 0.0 - - - - - - -
01/12:00am 10.4 ESE 6 8 - - 0.0 - - - - - - -
 
Date/Time
WST
Temp

°C
Wind Pressure Rain
since 9am
mm
Weather Cloud Vis
km
Sea
Height
m
Swell
Dir
 
Speed
knots
Gust
knots
hPa Trend Height
m
Period
s
Dir
31/11:30pm 10.5 ESE 6 7 - - 0.0 - - - - - - -
31/11:00pm 10.7 ESE 5 6 - - 0.0 - - - - - - -
31/10:30pm 11.1 SE 6 7 - - 0.0 - - - - - - -
31/10:00pm 11.3 SE 5 8 - - 0.0 - - - - - - -
31/09:30pm 11.8 ESE 4 5 - - 0.0 - - - - - - -
31/09:00pm 12.0 SSE 4 7 - - 0.0 - - - - - - -
31/08:30pm 12.6 SSE 6 10 - - 0.0 - - - - - - -
31/08:00pm 12.9 SSE 7 11 - - 0.0 - - - - - - -
31/07:30pm 13.0 S 7 9 - - 0.0 - - - - - - -
31/07:00pm 13.4 S 6 9 - - 0.0 - - - - - - -
31/06:30pm 13.7 S 7 12 - - 0.0 - - - - - - -
31/06:00pm 13.9 S 7 11 - - 0.0 - - - - - - -
31/05:30pm 14.6 S 8 12 - - 0.0 - - - - - - -
31/05:00pm 15.3 SSW 8 12 - - 0.0 - - - - - - -
31/04:30pm 15.7 SSW 8 12 - - 0.0 - - - - - - -
31/04:00pm 17.3 SSW 7 10 - - 0.0 - - - - - - -
31/03:30pm 16.7 SW 8 12 - - 0.0 - - - - - - -
31/03:00pm 17.2 SW 7 11 - - 0.0 - - - - - - -
31/02:30pm 16.9 SW 8 11 - - 0.0 - - - - - - -
31/02:00pm 18.0 SW 7 10 - - 0.0 - - - - - - -
31/01:30pm 18.1 S 3 6 - - 0.0 - - - - - - -
31/01:00pm 18.3 ESE 6 14 - - 0.0 - - - - - - -
31/12:30pm 17.6 SSE 6 10 - - 0.0 - - - - - - -
31/12:00pm 17.5 SSE 4 9 - - 0.0 - - - - - - -
31/11:30am 15.8 SSE 6 9 - - 0.0 - - - - - - -
31/11:00am 16.3 SSE 6 11 - - 0.0 - - - - - - -
31/10:30am 15.8 SE 5 9 - - 0.0 - - - - - - -
31/10:00am 14.1 ESE 4 7 - - 0.0 - - - - - - -
31/09:30am 13.4 ESE 4 6 - - 0.0 - - - - - - -
31/09:00am 13.3 SSE 2 4 - - 0.8 - - - - - - -
31/08:30am 12.6 SE 2 4 - - 0.8 - - - - - - -
31/08:00am 12.4 SE 2 3 - - 0.8 - - - - - - -
31/07:30am 11.6 ESE 3 4 - - 0.8 - - - - - - -
31/07:00am 11.2 E 3 4 - - 0.8 - - - - - - -
31/06:30am 10.7 ESE 3 4 - - 0.8 - - - - - - -
31/06:00am 10.9 ESE 5 6 - - 0.8 - - - - - - -
31/05:30am 11.1 ESE 5 6 - - 0.8 - - - - - - -
31/05:00am 11.6 ESE 4 6 - - 0.8 - - - - - - -
31/04:30am 12.1 ESE 4 6 - - 0.8 - - - - - - -
31/04:00am 12.4 SE 4 6 - - 0.6 - - - - - - -
31/03:30am 12.5 E 3 5 - - 0.0 - - - - - - -
31/03:00am 12.7 E 4 7 - - 0.0 - - - - - - -
31/02:30am 12.7 E 2 4 - - 0.0 - - - - - - -
31/02:00am 12.6 ESE 4 5 - - 0.0 - - - - - - -
31/01:30am 12.9 SE 4 6 - - 0.0 - - - - - - -
31/01:00am 12.7 ESE 3 5 - - 0.0 - - - - - - -
31/12:30am 13.4 SSE 5 6 - - 0.0 - - - - - - -
31/12:00am 14.1 S 7 13 - - 0.0 - - - - - - -
 
Date/Time
WST
Temp

°C
Wind Pressure Rain
since 9am
mm
Weather Cloud Vis
km
Sea
Height
m
Swell
Dir
 
Speed
knots
Gust
knots
hPa Trend Height
m
Period
s
Dir
30/11:30pm 13.4 E 3 5 - - 0.0 - - - - - - -
30/11:00pm 13.8 SE 2 4 - - 0.0 - - - - - - -
30/10:30pm 13.9 ESE 3 4 - - 0.0 - - - - - - -
30/10:00pm 14.3 SSE 4 6 - - 0.0 - - - - - - -
30/09:30pm 15.9 W 7 11 - - 0.0 - - - - - - -
30/09:00pm 15.7 W 6 9 - - 0.0 - - - - - - -
30/08:30pm 15.7 WSW 7 10 - - 0.0 - - - - - - -
30/08:00pm 15.9 WSW 8 12 - - 0.0 - - - - - - -
30/07:30pm 15.9 WSW 8 13 - - 0.0 - - - - - - -
30/07:00pm 15.9 WSW 7 11 - - 0.0 - - - - - - -
30/06:30pm 15.8 WSW 7 11 - - 0.0 - - - - - - -
30/06:00pm 15.8 WSW 8 12 - - 0.0 - - - - - - -
30/05:30pm 16.3 WSW 8 12 - - 0.0 - - - - - - -
30/05:00pm 16.6 WSW 7 11 - - 0.0 - - - - - - -
30/04:30pm 16.7 SW 5 8 - - 0.0 - - - - - - -
30/04:00pm 16.9 SSW 6 9 - - 0.0 - - - - - - -
30/03:30pm 17.5 SSW 7 10 - - 0.0 - - - - - - -
30/03:00pm 18.7 SSW 7 11 - - 0.0 - - - - - - -
30/02:30pm 17.5 SW 6 9 - - 0.0 - - - - - - -
30/02:00pm 18.2 SSW 6 10 - - 0.0 - - - - - - -
30/01:30pm 18.6 SSW 6 8 - - 0.0 - - - - - - -

Other Formats:

Comma delimited format used in spreadsheet applications
http://www.bom.gov.au/fwo/IDW60701/IDW60701.94614.axf

JavaScript Object Notation format (JSON) in row-major order
http://www.bom.gov.au/fwo/IDW60701/IDW60701.94614.json